sensor_id;sensor_type;location;lat;lon;timestamp;P1;durP1;ratioP1;P2;durP2;ratioP2
62582;SDS011;48641;51.676;5.808;2024-02-15T00:01:01;6.15;;;2.20;;
62582;SDS011;48641;51.676;5.808;2024-02-15T00:03:27;4.88;;;2.15;;
62582;SDS011;48641;51.676;5.808;2024-02-15T00:05:52;5.43;;;2.40;;
62582;SDS011;48641;51.676;5.808;2024-02-15T00:08:18;4.82;;;2.00;;
62582;SDS011;48641;51.676;5.808;2024-02-15T00:10:46;5.47;;;2.17;;
62582;SDS011;48641;51.676;5.808;2024-02-15T00:13:12;5.30;;;2.60;;
62582;SDS011;48641;51.676;5.808;2024-02-15T00:15:38;6.45;;;2.33;;
62582;SDS011;48641;51.676;5.808;2024-02-15T00:18:04;5.35;;;2.30;;
62582;SDS011;48641;51.676;5.808;2024-02-15T00:20:29;4.97;;;2.05;;
62582;SDS011;48641;51.676;5.808;2024-02-15T00:22:55;5.50;;;2.13;;
62582;SDS011;48641;51.676;5.808;2024-02-15T00:25:21;5.25;;;2.03;;
62582;SDS011;48641;51.676;5.808;2024-02-15T00:27:47;5.82;;;2.22;;
62582;SDS011;48641;51.676;5.808;2024-02-15T00:30:12;6.25;;;2.33;;
62582;SDS011;48641;51.676;5.808;2024-02-15T00:32:38;4.35;;;2.13;;
62582;SDS011;48641;51.676;5.808;2024-02-15T00:35:04;4.45;;;2.13;;
62582;SDS011;48641;51.676;5.808;2024-02-15T00:37:34;3.97;;;2.00;;
62582;SDS011;48641;51.676;5.808;2024-02-15T00:40:03;5.95;;;2.40;;
62582;SDS011;48641;51.676;5.808;2024-02-15T00:42:29;6.18;;;2.33;;
62582;SDS011;48641;51.676;5.808;2024-02-15T00:44:56;5.85;;;2.40;;
62582;SDS011;48641;51.676;5.808;2024-02-15T00:47:22;5.50;;;2.10;;
62582;SDS011;48641;51.676;5.808;2024-02-15T00:49:48;4.88;;;2.38;;
62582;SDS011;48641;51.676;5.808;2024-02-15T00:52:15;5.05;;;2.17;;
62582;SDS011;48641;51.676;5.808;2024-02-15T00:54:42;6.10;;;2.50;;
62582;SDS011;48641;51.676;5.808;2024-02-15T00:57:08;5.72;;;2.38;;
62582;SDS011;48641;51.676;5.808;2024-02-15T00:59:33;4.93;;;2.13;;
62582;SDS011;48641;51.676;5.808;2024-02-15T01:02:01;5.93;;;2.33;;
62582;SDS011;48641;51.676;5.808;2024-02-15T01:04:27;6.60;;;2.25;;
62582;SDS011;48641;51.676;5.808;2024-02-15T01:06:53;6.15;;;2.67;;
62582;SDS011;48641;51.676;5.808;2024-02-15T01:09:18;5.30;;;2.17;;
62582;SDS011;48641;51.676;5.808;2024-02-15T01:11:44;5.38;;;2.08;;
62582;SDS011;48641;51.676;5.808;2024-02-15T01:14:09;5.38;;;2.25;;
62582;SDS011;48641;51.676;5.808;2024-02-15T01:16:35;5.25;;;2.40;;
62582;SDS011;48641;51.676;5.808;2024-02-15T01:19:02;6.68;;;2.38;;
62582;SDS011;48641;51.676;5.808;2024-02-15T01:21:28;6.55;;;2.72;;
62582;SDS011;48641;51.676;5.808;2024-02-15T01:23:53;5.43;;;2.30;;
62582;SDS011;48641;51.676;5.808;2024-02-15T01:26:19;5.53;;;2.20;;
62582;SDS011;48641;51.676;5.808;2024-02-15T01:28:45;6.78;;;2.72;;
62582;SDS011;48641;51.676;5.808;2024-02-15T01:31:10;6.30;;;2.38;;
62582;SDS011;48641;51.676;5.808;2024-02-15T01:33:36;5.63;;;2.60;;
62582;SDS011;48641;51.676;5.808;2024-02-15T01:36:03;5.10;;;2.25;;
62582;SDS011;48641;51.676;5.808;2024-02-15T01:38:29;6.18;;;2.53;;
62582;SDS011;48641;51.676;5.808;2024-02-15T01:40:55;5.93;;;2.38;;
62582;SDS011;48641;51.676;5.808;2024-02-15T01:43:20;5.78;;;2.20;;
62582;SDS011;48641;51.676;5.808;2024-02-15T01:45:46;6.40;;;2.58;;
62582;SDS011;48641;51.676;5.808;2024-02-15T01:48:13;5.35;;;2.33;;
62582;SDS011;48641;51.676;5.808;2024-02-15T01:50:40;6.40;;;2.63;;
62582;SDS011;48641;51.676;5.808;2024-02-15T01:53:07;5.18;;;2.38;;
62582;SDS011;48641;51.676;5.808;2024-02-15T01:55:34;6.57;;;2.95;;
62582;SDS011;48641;51.676;5.808;2024-02-15T01:58:00;5.30;;;2.20;;
62582;SDS011;48641;51.676;5.808;2024-02-15T02:00:27;6.80;;;2.60;;
62582;SDS011;48641;51.676;5.808;2024-02-15T02:02:53;7.90;;;2.60;;
62582;SDS011;48641;51.676;5.808;2024-02-15T02:05:24;5.68;;;2.35;;
62582;SDS011;48641;51.676;5.808;2024-02-15T02:07:52;6.10;;;2.40;;
62582;SDS011;48641;51.676;5.808;2024-02-15T02:10:17;6.57;;;2.40;;
62582;SDS011;48641;51.676;5.808;2024-02-15T02:12:43;6.18;;;2.30;;
62582;SDS011;48641;51.676;5.808;2024-02-15T02:15:09;5.95;;;2.50;;
62582;SDS011;48641;51.676;5.808;2024-02-15T02:17:36;5.32;;;2.28;;
62582;SDS011;48641;51.676;5.808;2024-02-15T02:20:02;5.57;;;2.22;;
62582;SDS011;48641;51.676;5.808;2024-02-15T02:22:33;5.43;;;2.33;;
62582;SDS011;48641;51.676;5.808;2024-02-15T02:27:36;6.30;;;2.17;;
62582;SDS011;48641;51.676;5.808;2024-02-15T02:30:20;5.72;;;2.53;;
62582;SDS011;48641;51.676;5.808;2024-02-15T02:32:47;8.10;;;2.28;;
62582;SDS011;48641;51.676;5.808;2024-02-15T02:35:13;6.10;;;2.72;;
62582;SDS011;48641;51.676;5.808;2024-02-15T02:37:40;6.10;;;2.28;;
62582;SDS011;48641;51.676;5.808;2024-02-15T02:40:07;6.38;;;2.17;;
62582;SDS011;48641;51.676;5.808;2024-02-15T02:42:35;6.22;;;2.50;;
62582;SDS011;48641;51.676;5.808;2024-02-15T02:45:10;5.18;;;2.08;;
62582;SDS011;48641;51.676;5.808;2024-02-15T02:47:36;5.38;;;2.22;;
62582;SDS011;48641;51.676;5.808;2024-02-15T02:50:02;6.88;;;2.20;;
62582;SDS011;48641;51.676;5.808;2024-02-15T02:52:28;5.03;;;2.10;;
62582;SDS011;48641;51.676;5.808;2024-02-15T02:54:54;5.82;;;2.20;;
62582;SDS011;48641;51.676;5.808;2024-02-15T02:57:19;7.22;;;2.10;;
62582;SDS011;48641;51.676;5.808;2024-02-15T02:59:45;6.35;;;2.55;;
62582;SDS011;48641;51.676;5.808;2024-02-15T03:02:11;6.97;;;2.25;;
62582;SDS011;48641;51.676;5.808;2024-02-15T03:04:38;6.13;;;2.08;;
62582;SDS011;48641;51.676;5.808;2024-02-15T03:07:05;6.07;;;2.13;;
62582;SDS011;48641;51.676;5.808;2024-02-15T03:09:30;5.72;;;2.40;;
62582;SDS011;48641;51.676;5.808;2024-02-15T03:11:56;5.15;;;1.92;;
62582;SDS011;48641;51.676;5.808;2024-02-15T03:14:26;5.63;;;2.15;;
62582;SDS011;48641;51.676;5.808;2024-02-15T03:16:51;5.22;;;2.10;;
62582;SDS011;48641;51.676;5.808;2024-02-15T03:19:19;6.25;;;2.28;;
62582;SDS011;48641;51.676;5.808;2024-02-15T03:21:45;5.95;;;2.00;;
62582;SDS011;48641;51.676;5.808;2024-02-15T03:24:11;5.53;;;1.90;;
62582;SDS011;48641;51.676;5.808;2024-02-15T03:26:37;5.45;;;2.10;;
62582;SDS011;48641;51.676;5.808;2024-02-15T03:29:03;4.80;;;1.80;;
62582;SDS011;48641;51.676;5.808;2024-02-15T03:31:29;5.07;;;1.92;;
62582;SDS011;48641;51.676;5.808;2024-02-15T03:33:59;5.28;;;2.00;;
62582;SDS011;48641;51.676;5.808;2024-02-15T03:36:25;6.47;;;2.17;;
62582;SDS011;48641;51.676;5.808;2024-02-15T03:38:52;6.65;;;1.90;;
62582;SDS011;48641;51.676;5.808;2024-02-15T03:41:19;6.55;;;2.40;;
62582;SDS011;48641;51.676;5.808;2024-02-15T03:43:45;6.40;;;2.55;;
62582;SDS011;48641;51.676;5.808;2024-02-15T03:46:12;5.35;;;2.22;;
62582;SDS011;48641;51.676;5.808;2024-02-15T03:48:39;4.95;;;2.00;;
62582;SDS011;48641;51.676;5.808;2024-02-15T03:51:09;5.57;;;2.03;;
62582;SDS011;48641;51.676;5.808;2024-02-15T03:53:34;5.88;;;1.98;;
62582;SDS011;48641;51.676;5.808;2024-02-15T03:56:03;5.45;;;1.90;;
62582;SDS011;48641;51.676;5.808;2024-02-15T03:58:29;6.63;;;1.80;;
62582;SDS011;48641;51.676;5.808;2024-02-15T04:00:58;5.35;;;1.95;;
62582;SDS011;48641;51.676;5.808;2024-02-15T04:03:24;6.00;;;1.88;;
62582;SDS011;48641;51.676;5.808;2024-02-15T04:05:49;5.60;;;1.95;;
62582;SDS011;48641;51.676;5.808;2024-02-15T04:08:15;4.88;;;1.67;;
62582;SDS011;48641;51.676;5.808;2024-02-15T04:10:41;5.45;;;1.75;;
62582;SDS011;48641;51.676;5.808;2024-02-15T04:13:07;5.25;;;1.90;;
62582;SDS011;48641;51.676;5.808;2024-02-15T04:15:32;7.05;;;2.00;;
62582;SDS011;48641;51.676;5.808;2024-02-15T04:17:58;5.10;;;1.83;;
62582;SDS011;48641;51.676;5.808;2024-02-15T04:20:24;5.10;;;2.03;;
62582;SDS011;48641;51.676;5.808;2024-02-15T04:22:51;5.07;;;1.77;;
62582;SDS011;48641;51.676;5.808;2024-02-15T04:25:17;5.90;;;2.20;;
62582;SDS011;48641;51.676;5.808;2024-02-15T04:27:45;5.30;;;2.08;;
62582;SDS011;48641;51.676;5.808;2024-02-15T04:30:12;5.10;;;1.88;;
62582;SDS011;48641;51.676;5.808;2024-02-15T04:32:38;5.60;;;1.90;;
62582;SDS011;48641;51.676;5.808;2024-02-15T04:35:03;7.32;;;2.10;;
62582;SDS011;48641;51.676;5.808;2024-02-15T04:37:30;4.88;;;1.75;;
62582;SDS011;48641;51.676;5.808;2024-02-15T04:39:57;7.03;;;1.98;;
62582;SDS011;48641;51.676;5.808;2024-02-15T04:42:24;5.88;;;1.80;;
62582;SDS011;48641;51.676;5.808;2024-02-15T04:44:52;4.82;;;2.00;;
62582;SDS011;48641;51.676;5.808;2024-02-15T04:47:19;5.32;;;1.98;;
62582;SDS011;48641;51.676;5.808;2024-02-15T04:49:45;6.45;;;1.88;;
62582;SDS011;48641;51.676;5.808;2024-02-15T04:52:11;6.65;;;2.03;;
62582;SDS011;48641;51.676;5.808;2024-02-15T04:54:36;6.05;;;2.00;;
62582;SDS011;48641;51.676;5.808;2024-02-15T04:57:03;4.43;;;1.90;;
62582;SDS011;48641;51.676;5.808;2024-02-15T04:59:28;6.10;;;1.90;;
62582;SDS011;48641;51.676;5.808;2024-02-15T05:01:54;5.63;;;1.58;;
62582;SDS011;48641;51.676;5.808;2024-02-15T05:04:21;5.75;;;2.05;;
62582;SDS011;48641;51.676;5.808;2024-02-15T05:06:47;4.78;;;1.63;;
62582;SDS011;48641;51.676;5.808;2024-02-15T05:09:13;5.63;;;1.67;;
62582;SDS011;48641;51.676;5.808;2024-02-15T05:11:42;5.88;;;1.90;;
62582;SDS011;48641;51.676;5.808;2024-02-15T05:14:11;3.53;;;1.55;;
62582;SDS011;48641;51.676;5.808;2024-02-15T05:16:37;5.10;;;1.88;;
62582;SDS011;48641;51.676;5.808;2024-02-15T05:19:07;4.97;;;1.73;;
62582;SDS011;48641;51.676;5.808;2024-02-15T05:21:34;5.13;;;1.65;;
62582;SDS011;48641;51.676;5.808;2024-02-15T05:23:59;5.95;;;1.90;;
62582;SDS011;48641;51.676;5.808;2024-02-15T05:26:25;6.47;;;1.80;;
62582;SDS011;48641;51.676;5.808;2024-02-15T05:28:51;4.45;;;1.60;;
62582;SDS011;48641;51.676;5.808;2024-02-15T05:31:18;5.93;;;1.70;;
62582;SDS011;48641;51.676;5.808;2024-02-15T05:33:51;5.43;;;1.67;;
62582;SDS011;48641;51.676;5.808;2024-02-15T05:36:18;4.65;;;1.55;;
62582;SDS011;48641;51.676;5.808;2024-02-15T05:38:45;4.63;;;1.95;;
62582;SDS011;48641;51.676;5.808;2024-02-15T05:41:14;6.97;;;1.77;;
62582;SDS011;48641;51.676;5.808;2024-02-15T05:43:41;4.18;;;1.60;;
62582;SDS011;48641;51.676;5.808;2024-02-15T05:46:07;3.47;;;1.38;;
62582;SDS011;48641;51.676;5.808;2024-02-15T05:48:34;6.28;;;1.50;;
62582;SDS011;48641;51.676;5.808;2024-02-15T05:51:04;5.43;;;1.88;;
62582;SDS011;48641;51.676;5.808;2024-02-15T05:53:30;6.10;;;1.80;;
62582;SDS011;48641;51.676;5.808;2024-02-15T05:56:01;4.00;;;1.50;;
62582;SDS011;48641;51.676;5.808;2024-02-15T05:58:29;5.75;;;1.63;;
62582;SDS011;48641;51.676;5.808;2024-02-15T06:00:55;4.28;;;1.70;;
62582;SDS011;48641;51.676;5.808;2024-02-15T06:03:26;3.67;;;1.55;;
62582;SDS011;48641;51.676;5.808;2024-02-15T06:05:54;4.70;;;1.57;;
62582;SDS011;48641;51.676;5.808;2024-02-15T06:08:23;7.75;;;1.92;;
62582;SDS011;48641;51.676;5.808;2024-02-15T06:10:49;5.72;;;1.55;;
62582;SDS011;48641;51.676;5.808;2024-02-15T06:13:15;3.50;;;1.30;;
62582;SDS011;48641;51.676;5.808;2024-02-15T06:15:41;4.20;;;1.60;;
62582;SDS011;48641;51.676;5.808;2024-02-15T06:18:06;4.30;;;1.60;;
62582;SDS011;48641;51.676;5.808;2024-02-15T06:20:34;4.93;;;1.55;;
62582;SDS011;48641;51.676;5.808;2024-02-15T06:23:00;2.70;;;1.25;;
62582;SDS011;48641;51.676;5.808;2024-02-15T06:25:28;6.20;;;1.63;;
62582;SDS011;48641;51.676;5.808;2024-02-15T06:27:53;5.05;;;1.65;;
62582;SDS011;48641;51.676;5.808;2024-02-15T06:30:26;3.78;;;1.35;;
62582;SDS011;48641;51.676;5.808;2024-02-15T06:33:10;6.80;;;2.08;;
62582;SDS011;48641;51.676;5.808;2024-02-15T06:35:54;4.05;;;1.30;;
62582;SDS011;48641;51.676;5.808;2024-02-15T06:38:38;4.18;;;1.38;;
62582;SDS011;48641;51.676;5.808;2024-02-15T06:41:22;2.78;;;1.30;;
62582;SDS011;48641;51.676;5.808;2024-02-15T06:43:48;4.53;;;1.38;;
62582;SDS011;48641;51.676;5.808;2024-02-15T06:46:14;5.03;;;1.35;;
62582;SDS011;48641;51.676;5.808;2024-02-15T06:48:43;4.30;;;1.40;;
62582;SDS011;48641;51.676;5.808;2024-02-15T06:51:14;5.18;;;1.40;;
62582;SDS011;48641;51.676;5.808;2024-02-15T06:53:40;3.70;;;1.23;;
62582;SDS011;48641;51.676;5.808;2024-02-15T06:56:09;4.22;;;1.38;;
62582;SDS011;48641;51.676;5.808;2024-02-15T07:01:05;4.30;;;1.63;;
62582;SDS011;48641;51.676;5.808;2024-02-15T07:03:31;5.15;;;1.40;;
62582;SDS011;48641;51.676;5.808;2024-02-15T07:06:00;5.57;;;2.03;;
62582;SDS011;48641;51.676;5.808;2024-02-15T07:08:25;4.90;;;1.35;;
62582;SDS011;48641;51.676;5.808;2024-02-15T07:10:51;3.80;;;1.30;;
62582;SDS011;48641;51.676;5.808;2024-02-15T07:13:17;4.22;;;1.45;;
62582;SDS011;48641;51.676;5.808;2024-02-15T07:15:43;3.65;;;1.20;;
62582;SDS011;48641;51.676;5.808;2024-02-15T07:18:10;6.07;;;1.25;;
62582;SDS011;48641;51.676;5.808;2024-02-15T07:20:41;4.22;;;1.50;;
62582;SDS011;48641;51.676;5.808;2024-02-15T07:23:07;4.07;;;1.15;;
62582;SDS011;48641;51.676;5.808;2024-02-15T07:25:32;3.10;;;1.27;;
62582;SDS011;48641;51.676;5.808;2024-02-15T07:27:58;5.57;;;1.42;;
62582;SDS011;48641;51.676;5.808;2024-02-15T07:30:23;2.53;;;1.10;;
62582;SDS011;48641;51.676;5.808;2024-02-15T07:32:49;3.03;;;1.30;;
62582;SDS011;48641;51.676;5.808;2024-02-15T07:35:16;3.42;;;1.17;;
62582;SDS011;48641;51.676;5.808;2024-02-15T07:37:51;7.88;;;1.40;;
62582;SDS011;48641;51.676;5.808;2024-02-15T07:40:18;3.72;;;1.15;;
62582;SDS011;48641;51.676;5.808;2024-02-15T07:42:43;5.00;;;1.27;;
62582;SDS011;48641;51.676;5.808;2024-02-15T07:45:09;2.63;;;1.15;;
62582;SDS011;48641;51.676;5.808;2024-02-15T07:47:36;5.93;;;1.50;;
62582;SDS011;48641;51.676;5.808;2024-02-15T07:50:01;5.90;;;1.50;;
62582;SDS011;48641;51.676;5.808;2024-02-15T07:52:28;5.63;;;1.70;;
62582;SDS011;48641;51.676;5.808;2024-02-15T07:54:54;3.97;;;1.17;;
62582;SDS011;48641;51.676;5.808;2024-02-15T07:57:21;5.13;;;1.30;;
62582;SDS011;48641;51.676;5.808;2024-02-15T07:59:48;5.13;;;1.70;;
62582;SDS011;48641;51.676;5.808;2024-02-15T08:02:14;5.70;;;1.50;;
62582;SDS011;48641;51.676;5.808;2024-02-15T08:07:09;3.47;;;1.30;;
62582;SDS011;48641;51.676;5.808;2024-02-15T08:09:36;5.32;;;1.35;;
62582;SDS011;48641;51.676;5.808;2024-02-15T08:12:02;3.33;;;1.15;;
62582;SDS011;48641;51.676;5.808;2024-02-15T08:14:28;5.65;;;1.50;;
62582;SDS011;48641;51.676;5.808;2024-02-15T08:16:54;3.53;;;1.30;;
62582;SDS011;48641;51.676;5.808;2024-02-15T08:19:20;4.28;;;1.20;;
62582;SDS011;48641;51.676;5.808;2024-02-15T08:21:48;4.45;;;1.30;;
62582;SDS011;48641;51.676;5.808;2024-02-15T08:24:15;4.43;;;1.30;;
62582;SDS011;48641;51.676;5.808;2024-02-15T08:26:42;3.42;;;1.23;;
62582;SDS011;48641;51.676;5.808;2024-02-15T08:29:08;4.50;;;1.20;;
62582;SDS011;48641;51.676;5.808;2024-02-15T08:31:38;3.53;;;1.20;;
62582;SDS011;48641;51.676;5.808;2024-02-15T08:34:04;3.75;;;1.10;;
62582;SDS011;48641;51.676;5.808;2024-02-15T08:36:30;4.65;;;1.33;;
62582;SDS011;48641;51.676;5.808;2024-02-15T08:38:56;5.15;;;1.20;;
62582;SDS011;48641;51.676;5.808;2024-02-15T08:41:22;3.80;;;1.05;;
62582;SDS011;48641;51.676;5.808;2024-02-15T08:43:51;4.43;;;1.20;;
62582;SDS011;48641;51.676;5.808;2024-02-15T08:46:18;5.20;;;1.45;;
62582;SDS011;48641;51.676;5.808;2024-02-15T08:48:44;4.22;;;1.35;;
62582;SDS011;48641;51.676;5.808;2024-02-15T08:51:11;3.90;;;1.30;;
62582;SDS011;48641;51.676;5.808;2024-02-15T08:53:37;4.70;;;1.20;;
62582;SDS011;48641;51.676;5.808;2024-02-15T08:56:03;4.03;;;1.08;;
62582;SDS011;48641;51.676;5.808;2024-02-15T08:58:30;5.07;;;1.30;;
62582;SDS011;48641;51.676;5.808;2024-02-15T09:00:56;6.85;;;1.30;;
62582;SDS011;48641;51.676;5.808;2024-02-15T09:03:22;5.30;;;1.52;;
62582;SDS011;48641;51.676;5.808;2024-02-15T09:05:48;4.10;;;1.40;;
62582;SDS011;48641;51.676;5.808;2024-02-15T09:08:13;6.30;;;1.35;;
62582;SDS011;48641;51.676;5.808;2024-02-15T09:10:40;4.55;;;1.30;;
62582;SDS011;48641;51.676;5.808;2024-02-15T09:13:07;3.30;;;1.33;;
62582;SDS011;48641;51.676;5.808;2024-02-15T09:15:33;3.67;;;1.15;;
62582;SDS011;48641;51.676;5.808;2024-02-15T09:17:59;2.75;;;1.25;;
62582;SDS011;48641;51.676;5.808;2024-02-15T09:20:24;3.78;;;1.08;;
62582;SDS011;48641;51.676;5.808;2024-02-15T09:22:53;4.05;;;1.10;;
62582;SDS011;48641;51.676;5.808;2024-02-15T09:25:19;3.60;;;1.20;;
62582;SDS011;48641;51.676;5.808;2024-02-15T09:27:49;4.53;;;1.23;;
62582;SDS011;48641;51.676;5.808;2024-02-15T09:30:15;3.65;;;1.08;;
62582;SDS011;48641;51.676;5.808;2024-02-15T09:32:41;5.28;;;1.33;;
62582;SDS011;48641;51.676;5.808;2024-02-15T09:35:08;3.00;;;1.20;;
62582;SDS011;48641;51.676;5.808;2024-02-15T09:37:38;3.65;;;1.00;;
62582;SDS011;48641;51.676;5.808;2024-02-15T09:42:38;2.58;;;1.10;;
62582;SDS011;48641;51.676;5.808;2024-02-15T09:45:07;3.88;;;1.30;;
62582;SDS011;48641;51.676;5.808;2024-02-15T09:47:36;5.10;;;1.40;;
62582;SDS011;48641;51.676;5.808;2024-02-15T09:50:04;3.67;;;1.27;;
62582;SDS011;48641;51.676;5.808;2024-02-15T09:52:36;4.68;;;1.42;;
62582;SDS011;48641;51.676;5.808;2024-02-15T09:55:03;2.88;;;0.90;;
62582;SDS011;48641;51.676;5.808;2024-02-15T09:57:30;3.33;;;1.10;;
62582;SDS011;48641;51.676;5.808;2024-02-15T09:59:58;4.55;;;1.27;;
62582;SDS011;48641;51.676;5.808;2024-02-15T10:02:28;3.15;;;1.20;;
62582;SDS011;48641;51.676;5.808;2024-02-15T10:04:55;2.83;;;1.08;;
62582;SDS011;48641;51.676;5.808;2024-02-15T10:07:24;4.32;;;1.13;;
62582;SDS011;48641;51.676;5.808;2024-02-15T10:09:52;4.10;;;1.30;;
62582;SDS011;48641;51.676;5.808;2024-02-15T10:12:17;6.63;;;1.23;;
62582;SDS011;48641;51.676;5.808;2024-02-15T10:14:49;3.30;;;1.20;;
62582;SDS011;48641;51.676;5.808;2024-02-15T10:17:15;2.70;;;1.05;;
62582;SDS011;48641;51.676;5.808;2024-02-15T10:19:42;5.05;;;1.38;;
62582;SDS011;48641;51.676;5.808;2024-02-15T10:22:09;4.90;;;1.30;;
62582;SDS011;48641;51.676;5.808;2024-02-15T10:24:36;3.92;;;1.08;;
62582;SDS011;48641;51.676;5.808;2024-02-15T10:27:04;3.83;;;1.40;;
62582;SDS011;48641;51.676;5.808;2024-02-15T10:29:32;6.15;;;1.63;;
62582;SDS011;48641;51.676;5.808;2024-02-15T10:31:59;5.05;;;1.35;;
62582;SDS011;48641;51.676;5.808;2024-02-15T10:34:26;4.28;;;1.70;;
62582;SDS011;48641;51.676;5.808;2024-02-15T10:36:55;4.35;;;1.15;;
62582;SDS011;48641;51.676;5.808;2024-02-15T10:39:41;5.03;;;1.27;;
62582;SDS011;48641;51.676;5.808;2024-02-15T10:42:07;4.28;;;1.30;;
62582;SDS011;48641;51.676;5.808;2024-02-15T10:44:35;5.00;;;1.30;;
62582;SDS011;48641;51.676;5.808;2024-02-15T10:47:03;3.38;;;1.00;;
62582;SDS011;48641;51.676;5.808;2024-02-15T10:49:32;3.20;;;1.20;;
62582;SDS011;48641;51.676;5.808;2024-02-15T10:52:00;3.33;;;1.20;;
62582;SDS011;48641;51.676;5.808;2024-02-15T10:57:08;4.38;;;1.30;;
62582;SDS011;48641;51.676;5.808;2024-02-15T10:59:35;4.15;;;1.27;;
62582;SDS011;48641;51.676;5.808;2024-02-15T11:02:15;3.97;;;1.00;;
62582;SDS011;48641;51.676;5.808;2024-02-15T11:04:53;3.50;;;1.17;;
62582;SDS011;48641;51.676;5.808;2024-02-15T11:07:25;4.82;;;1.30;;
62582;SDS011;48641;51.676;5.808;2024-02-15T11:09:56;2.97;;;1.00;;
62582;SDS011;48641;51.676;5.808;2024-02-15T11:12:23;3.83;;;1.40;;
62582;SDS011;48641;51.676;5.808;2024-02-15T11:14:53;4.32;;;1.50;;
62582;SDS011;48641;51.676;5.808;2024-02-15T11:22:36;3.65;;;1.20;;
62582;SDS011;48641;51.676;5.808;2024-02-15T11:25:05;4.47;;;1.42;;
62582;SDS011;48641;51.676;5.808;2024-02-15T11:27:34;2.95;;;0.95;;
62582;SDS011;48641;51.676;5.808;2024-02-15T11:30:02;4.68;;;1.30;;
62582;SDS011;48641;51.676;5.808;2024-02-15T11:32:44;4.55;;;1.20;;
62582;SDS011;48641;51.676;5.808;2024-02-15T11:35:21;2.58;;;1.00;;
62582;SDS011;48641;51.676;5.808;2024-02-15T11:40:59;2.80;;;0.90;;
62582;SDS011;48641;51.676;5.808;2024-02-15T11:46:15;2.90;;;1.05;;
62582;SDS011;48641;51.676;5.808;2024-02-15T11:53:58;3.80;;;1.20;;
62582;SDS011;48641;51.676;5.808;2024-02-15T11:56:26;3.67;;;1.25;;
62582;SDS011;48641;51.676;5.808;2024-02-15T11:59:01;4.70;;;1.30;;
62582;SDS011;48641;51.676;5.808;2024-02-15T12:01:30;2.95;;;1.05;;
62582;SDS011;48641;51.676;5.808;2024-02-15T12:04:14;3.25;;;1.00;;
62582;SDS011;48641;51.676;5.808;2024-02-15T12:06:58;3.40;;;1.10;;
62582;SDS011;48641;51.676;5.808;2024-02-15T12:09:42;3.42;;;1.10;;
62582;SDS011;48641;51.676;5.808;2024-02-15T12:12:26;3.95;;;1.20;;
62582;SDS011;48641;51.676;5.808;2024-02-15T12:15:10;3.25;;;1.25;;
62582;SDS011;48641;51.676;5.808;2024-02-15T12:17:54;4.03;;;1.15;;
62582;SDS011;48641;51.676;5.808;2024-02-15T12:20:56;3.80;;;1.20;;
62582;SDS011;48641;51.676;5.808;2024-02-15T12:23:22;3.58;;;1.30;;
62582;SDS011;48641;51.676;5.808;2024-02-15T12:25:51;2.90;;;1.25;;
62582;SDS011;48641;51.676;5.808;2024-02-15T12:28:17;4.50;;;1.23;;
62582;SDS011;48641;51.676;5.808;2024-02-15T12:30:43;3.05;;;1.15;;
62582;SDS011;48641;51.676;5.808;2024-02-15T12:33:09;6.38;;;1.30;;
62582;SDS011;48641;51.676;5.808;2024-02-15T12:35:44;5.18;;;1.23;;
62582;SDS011;48641;51.676;5.808;2024-02-15T12:38:09;4.10;;;1.15;;
62582;SDS011;48641;51.676;5.808;2024-02-15T12:40:41;4.45;;;1.50;;
62582;SDS011;48641;51.676;5.808;2024-02-15T12:43:07;4.47;;;1.10;;
62582;SDS011;48641;51.676;5.808;2024-02-15T12:45:37;5.43;;;1.10;;
62582;SDS011;48641;51.676;5.808;2024-02-15T12:48:04;3.53;;;1.30;;
62582;SDS011;48641;51.676;5.808;2024-02-15T12:50:31;5.28;;;1.15;;
62582;SDS011;48641;51.676;5.808;2024-02-15T12:52:57;4.43;;;1.27;;
62582;SDS011;48641;51.676;5.808;2024-02-15T12:55:31;3.20;;;1.17;;
62582;SDS011;48641;51.676;5.808;2024-02-15T12:57:59;3.83;;;1.17;;
62582;SDS011;48641;51.676;5.808;2024-02-15T13:00:33;3.78;;;1.10;;
62582;SDS011;48641;51.676;5.808;2024-02-15T13:03:04;3.63;;;1.13;;
62582;SDS011;48641;51.676;5.808;2024-02-15T13:05:33;4.30;;;1.40;;
62582;SDS011;48641;51.676;5.808;2024-02-15T13:08:01;3.83;;;1.27;;
62582;SDS011;48641;51.676;5.808;2024-02-15T13:10:28;4.47;;;1.00;;
62582;SDS011;48641;51.676;5.808;2024-02-15T13:12:57;4.13;;;1.13;;
62582;SDS011;48641;51.676;5.808;2024-02-15T13:15:23;2.80;;;1.02;;
62582;SDS011;48641;51.676;5.808;2024-02-15T13:17:55;1.88;;;0.85;;
62582;SDS011;48641;51.676;5.808;2024-02-15T13:20:21;3.22;;;1.00;;
62582;SDS011;48641;51.676;5.808;2024-02-15T13:22:58;4.45;;;1.25;;
62582;SDS011;48641;51.676;5.808;2024-02-15T13:25:27;5.47;;;1.25;;
62582;SDS011;48641;51.676;5.808;2024-02-15T13:30:33;2.67;;;1.02;;
62582;SDS011;48641;51.676;5.808;2024-02-15T13:32:59;2.90;;;1.00;;
62582;SDS011;48641;51.676;5.808;2024-02-15T13:35:24;4.05;;;1.23;;
62582;SDS011;48641;51.676;5.808;2024-02-15T13:43:01;4.13;;;0.95;;
62582;SDS011;48641;51.676;5.808;2024-02-15T13:45:31;4.57;;;1.70;;
62582;SDS011;48641;51.676;5.808;2024-02-15T13:48:02;2.55;;;1.10;;
62582;SDS011;48641;51.676;5.808;2024-02-15T13:50:30;4.30;;;1.25;;
62582;SDS011;48641;51.676;5.808;2024-02-15T13:52:56;4.60;;;1.40;;
62582;SDS011;48641;51.676;5.808;2024-02-15T13:55:25;5.53;;;1.25;;
62582;SDS011;48641;51.676;5.808;2024-02-15T13:57:51;2.67;;;0.95;;
62582;SDS011;48641;51.676;5.808;2024-02-15T14:00:18;9.82;;;1.73;;
62582;SDS011;48641;51.676;5.808;2024-02-15T14:02:50;7.10;;;1.40;;
62582;SDS011;48641;51.676;5.808;2024-02-15T14:05:21;5.95;;;1.42;;
62582;SDS011;48641;51.676;5.808;2024-02-15T14:07:50;8.13;;;1.75;;
62582;SDS011;48641;51.676;5.808;2024-02-15T14:10:20;8.38;;;1.55;;
62582;SDS011;48641;51.676;5.808;2024-02-15T14:12:47;7.55;;;1.70;;
62582;SDS011;48641;51.676;5.808;2024-02-15T14:15:14;6.75;;;1.60;;
62582;SDS011;48641;51.676;5.808;2024-02-15T14:17:42;7.03;;;1.55;;
62582;SDS011;48641;51.676;5.808;2024-02-15T14:20:09;5.75;;;1.60;;
62582;SDS011;48641;51.676;5.808;2024-02-15T14:22:39;7.47;;;1.63;;
62582;SDS011;48641;51.676;5.808;2024-02-15T14:25:05;9.07;;;2.00;;
62582;SDS011;48641;51.676;5.808;2024-02-15T14:27:32;5.32;;;1.85;;
62582;SDS011;48641;51.676;5.808;2024-02-15T14:29:58;7.18;;;1.67;;
62582;SDS011;48641;51.676;5.808;2024-02-15T14:32:42;4.85;;;1.80;;
62582;SDS011;48641;51.676;5.808;2024-02-15T14:43:46;5.15;;;1.70;;
62582;SDS011;48641;51.676;5.808;2024-02-15T14:46:12;5.53;;;1.70;;
62582;SDS011;48641;51.676;5.808;2024-02-15T14:48:37;6.97;;;1.70;;
62582;SDS011;48641;51.676;5.808;2024-02-15T14:51:05;5.50;;;1.77;;
62582;SDS011;48641;51.676;5.808;2024-02-15T14:53:31;7.75;;;1.80;;
62582;SDS011;48641;51.676;5.808;2024-02-15T14:55:57;6.47;;;1.75;;
62582;SDS011;48641;51.676;5.808;2024-02-15T14:58:22;5.82;;;1.58;;
62582;SDS011;48641;51.676;5.808;2024-02-15T15:00:48;5.00;;;1.50;;
62582;SDS011;48641;51.676;5.808;2024-02-15T15:03:14;5.13;;;1.55;;
62582;SDS011;48641;51.676;5.808;2024-02-15T15:05:41;4.40;;;1.48;;
62582;SDS011;48641;51.676;5.808;2024-02-15T15:08:26;5.95;;;1.48;;
62582;SDS011;48641;51.676;5.808;2024-02-15T15:11:10;5.95;;;1.90;;
62582;SDS011;48641;51.676;5.808;2024-02-15T15:13:54;4.35;;;1.40;;
62582;SDS011;48641;51.676;5.808;2024-02-15T15:16:20;6.45;;;1.48;;
62582;SDS011;48641;51.676;5.808;2024-02-15T15:18:47;4.90;;;1.45;;
62582;SDS011;48641;51.676;5.808;2024-02-15T15:21:13;5.45;;;1.40;;
62582;SDS011;48641;51.676;5.808;2024-02-15T15:23:41;4.40;;;1.35;;
62582;SDS011;48641;51.676;5.808;2024-02-15T15:26:07;3.22;;;1.20;;
62582;SDS011;48641;51.676;5.808;2024-02-15T15:28:39;3.72;;;1.27;;
62582;SDS011;48641;51.676;5.808;2024-02-15T15:31:05;4.38;;;1.17;;
62582;SDS011;48641;51.676;5.808;2024-02-15T15:33:32;5.28;;;1.30;;
62582;SDS011;48641;51.676;5.808;2024-02-15T15:36:01;6.93;;;1.23;;
62582;SDS011;48641;51.676;5.808;2024-02-15T15:38:28;5.93;;;1.38;;